»·PEaware :: N7FJ KPHX-KSAN

N7FJ :: KPHX-KSAN

FLIGHT INFORMATION

Flight Status: Arrived
Operator: Privately registered:
United States
More flights under this callsign
Pilot: Zuqi C. (19949)
Aircraft: ECLIPSE 500
(EA50)
More flights by this aircraft type
Origin: KPHX Phoenix Sky Harbor Intl
United States
Destination: KSAN San Diego Intl-Lindbergh
United States
More flights between these airports :: More routes between these airports
Route: +FYRBD1 MOHAK J2 HOGGZ LUCKI1
File this flight plan on PilotEdge
Remarks:
Altitude:
(Current/Filed)
24,000ft
Speed:
(Current/Filed)
365kts
Departed: 15-May-19 10:19 PM
Arrived: 15-May-19 11:16 PM
Distance/Time
Traveled:
263nm/0:57
Distance/Time
To Go:
Arrived

Flight Plot

Page will automatically refresh every two minutes.


Map Options




Map Legend


Flown Route
Filed Route
Departure Airport
Arrival Airport
Navaid (VOR, NDB)
Fix

Horizontal Profiles

Position Reports

Time Latitude Longitude Heading Altitude Ground
Speed
15-May-19 21:57 33.425810 -112.021410 91 1114ft 0kts
15-May-19 21:58 33.425810 -112.021410 91 1114ft 0kts
15-May-19 21:59 33.425810 -112.021410 91 1114ft 0kts
15-May-19 22:00 33.425810 -112.021410 91 1114ft 0kts
15-May-19 22:01 33.425810 -112.021410 91 1114ft 0kts
15-May-19 22:02 33.425810 -112.021410 91 1114ft 0kts
15-May-19 22:03 33.425810 -112.021410 91 1114ft 0kts
15-May-19 22:04 33.425810 -112.021410 91 1114ft 0kts
15-May-19 22:05 33.425810 -112.021410 91 1114ft 0kts
15-May-19 22:06 33.425810 -112.021410 91 1114ft 0kts
15-May-19 22:07 33.425810 -112.021410 91 1114ft 0kts
15-May-19 22:08 33.425810 -112.021410 91 1114ft 0kts
15-May-19 22:09 33.425810 -112.021410 91 1114ft 0kts
15-May-19 22:10 33.425810 -112.021410 91 1114ft 0kts
15-May-19 22:11 33.425809 -112.021339 91 1114ft 1kts
15-May-19 22:12 33.426165 -112.021133 358 1115ft 5kts
15-May-19 22:13 33.427758 -112.020192 90 1115ft 10kts
15-May-19 22:14 33.427751 -112.016412 90 1115ft 4kts
15-May-19 22:15 33.427740 -112.011487 90 1115ft 10kts
15-May-19 22:16 33.427741 -112.005974 90 1117ft 14kts
15-May-19 22:17 33.428789 -112.005375 305 1118ft 13kts
15-May-19 22:18 33.429759 -112.039442 270 2052ft 170kts
15-May-19 22:19 33.423602 -112.108316 240 2977ft 212kts
15-May-19 22:20 33.401781 -112.169424 249 4840ft 221kts
15-May-19 22:21 33.353577 -112.178016 166 7263ft 179kts
15-May-19 22:22 33.299013 -112.159100 178 8813ft 224kts
15-May-19 22:23 33.250166 -112.217773 232 10042ft 281kts
15-May-19 22:24 33.202462 -112.293419 231 12185ft 290kts
15-May-19 22:25 33.152918 -112.370591 230 14278ft 295kts
15-May-19 22:26 33.103373 -112.447384 230 16408ft 290kts
15-May-19 22:27 33.054760 -112.522520 230 18349ft 288kts
15-May-19 22:28 33.004832 -112.599508 230 19682ft 300kts
15-May-19 22:29 32.955275 -112.681781 250 20747ft 317kts
15-May-19 22:30 32.941237 -112.786644 257 21835ft 324kts
15-May-19 22:31 32.926965 -112.892812 257 22920ft 324kts
15-May-19 22:32 32.912612 -112.998452 257 23869ft 325kts
15-May-19 22:33 32.897548 -113.108540 258 23854ft 343kts
15-May-19 22:34 32.882052 -113.221050 258 23854ft 344kts
15-May-19 22:35 32.866497 -113.333160 258 23853ft 344kts
15-May-19 22:36 32.850834 -113.445242 258 23853ft 344kts
15-May-19 22:37 32.835000 -113.557824 258 23848ft 344kts
15-May-19 22:38 32.819079 -113.670206 257 23835ft 344kts
15-May-19 22:39 32.802944 -113.782419 257 23820ft 344kts
15-May-19 22:40 32.786699 -113.894282 257 23819ft 344kts
15-May-19 22:41 32.770261 -114.006421 257 23818ft 344kts
15-May-19 22:42 32.773344 -114.120279 273 23818ft 350kts
15-May-19 22:43 32.781005 -114.235303 269 23817ft 349kts
15-May-19 22:44 32.785966 -114.350238 269 23816ft 348kts
15-May-19 22:45 32.806284 -114.462910 286 23816ft 356kts
15-May-19 22:46 32.838832 -114.574150 284 23807ft 358kts
15-May-19 22:47 32.870222 -114.687701 283 23811ft 361kts
15-May-19 22:48 32.877689 -114.803537 265 23813ft 352kts
15-May-19 22:49 32.875055 -114.920465 265 23817ft 352kts
15-May-19 22:50 32.872388 -115.036268 265 23821ft 350kts
15-May-19 22:51 32.869620 -115.151805 264 23822ft 346kts
15-May-19 22:52 32.866787 -115.265462 264 23815ft 339kts
15-May-19 22:53 32.860111 -115.376569 257 23802ft 336kts
15-May-19 22:54 32.844571 -115.486177 257 23931ft 336kts
15-May-19 22:55 32.826845 -115.594882 256 23410ft 334kts
15-May-19 22:56 32.809072 -115.703265 256 22655ft 331kts
15-May-19 22:57 32.791560 -115.809623 256 21497ft 300kts
15-May-19 22:58 32.781459 -115.900858 261 20308ft 309kts
15-May-19 22:59 32.773179 -116.009051 262 18596ft 332kts
15-May-19 23:00 32.764936 -116.117723 262 16599ft 328kts
15-May-19 23:01 32.756750 -116.224606 262 14598ft 321kts
15-May-19 23:02 32.748707 -116.328759 263 12590ft 303kts
15-May-19 23:03 32.741396 -116.422670 263 10844ft 283kts
15-May-19 23:04 32.733965 -116.514161 262 10230ft 279kts
15-May-19 23:05 32.725126 -116.605929 262 9293ft 275kts
15-May-19 23:06 32.717133 -116.695809 263 7851ft 274kts
15-May-19 23:07 32.710238 -116.783242 263 6059ft 258kts
15-May-19 23:08 32.693631 -116.862881 249 5383ft 225kts
15-May-19 23:09 32.672720 -116.930622 256 4918ft 220kts
15-May-19 23:10 32.686990 -116.999138 285 3886ft 207kts
15-May-19 23:11 32.702074 -117.060335 286 2331ft 163kts
15-May-19 23:12 32.711641 -117.099464 286 1413ft 104kts
15-May-19 23:13 32.719764 -117.132851 286 1148ft 108kts
15-May-19 23:14 32.727836 -117.166109 286 359ft 102kts
15-May-19 23:15 32.733708 -117.190350 286 16ft 10kts
15-May-19 23:16 32.734827 -117.190531 57 16ft 7kts
15-May-19 23:17 32.733993 -117.186721 105 16ft 18kts
15-May-19 23:18 32.733013 -117.182656 106 16ft 16kts
15-May-19 23:19 32.733013 -117.178992 131 19ft 0kts
15-May-19 23:20 32.733013 -117.178992 131 19ft 0kts

Navigation Log

Ident Type
Flight plan parsing failed, navigation log unavailable